sensor_id;sensor_type;location;lat;lon;timestamp;P1;durP1;ratioP1;P2;durP2;ratioP2
17858;SDS011;35426;30.698;104.050;2023-06-14T00:00:15;24.40;;;9.73;;
17858;SDS011;35426;30.698;104.050;2023-06-14T00:02:51;17.40;;;10.10;;
17858;SDS011;35426;30.698;104.050;2023-06-14T00:05:29;17.10;;;10.00;;
17858;SDS011;35426;30.698;104.050;2023-06-14T00:08:08;23.13;;;10.73;;
17858;SDS011;35426;30.698;104.050;2023-06-14T00:10:42;15.90;;;10.40;;
17858;SDS011;35426;30.698;104.050;2023-06-14T00:13:16;17.13;;;10.20;;
17858;SDS011;35426;30.698;104.050;2023-06-14T00:15:51;18.83;;;9.97;;
17858;SDS011;35426;30.698;104.050;2023-06-14T00:18:24;27.37;;;11.00;;
17858;SDS011;35426;30.698;104.050;2023-06-14T00:21:00;17.57;;;10.97;;
17858;SDS011;35426;30.698;104.050;2023-06-14T00:23:35;20.27;;;10.57;;
17858;SDS011;35426;30.698;104.050;2023-06-14T00:26:10;19.63;;;10.60;;
17858;SDS011;35426;30.698;104.050;2023-06-14T00:28:44;24.03;;;11.60;;
17858;SDS011;35426;30.698;104.050;2023-06-14T00:31:18;19.60;;;10.87;;
17858;SDS011;35426;30.698;104.050;2023-06-14T00:33:54;22.33;;;11.67;;
17858;SDS011;35426;30.698;104.050;2023-06-14T00:36:33;23.23;;;11.73;;
17858;SDS011;35426;30.698;104.050;2023-06-14T00:39:08;25.70;;;11.57;;
17858;SDS011;35426;30.698;104.050;2023-06-14T00:41:43;22.03;;;11.23;;
17858;SDS011;35426;30.698;104.050;2023-06-14T00:44:16;24.30;;;11.20;;
17858;SDS011;35426;30.698;104.050;2023-06-14T00:46:51;21.13;;;11.37;;
17858;SDS011;35426;30.698;104.050;2023-06-14T00:49:26;21.80;;;11.10;;
17858;SDS011;35426;30.698;104.050;2023-06-14T00:52:05;20.17;;;11.13;;
17858;SDS011;35426;30.698;104.050;2023-06-14T00:54:41;18.20;;;10.87;;
17858;SDS011;35426;30.698;104.050;2023-06-14T00:57:16;19.55;;;10.80;;
17858;SDS011;35426;30.698;104.050;2023-06-14T00:59:52;24.48;;;11.00;;
17858;SDS011;35426;30.698;104.050;2023-06-14T01:02:27;21.27;;;10.65;;
17858;SDS011;35426;30.698;104.050;2023-06-14T01:05:02;18.88;;;9.57;;
17858;SDS011;35426;30.698;104.050;2023-06-14T01:07:49;19.15;;;9.65;;
17858;SDS011;35426;30.698;104.050;2023-06-14T01:10:35;20.83;;;9.32;;
17858;SDS011;35426;30.698;104.050;2023-06-14T01:13:18;23.60;;;11.85;;
17858;SDS011;35426;30.698;104.050;2023-06-14T01:15:56;20.67;;;11.50;;
17858;SDS011;35426;30.698;104.050;2023-06-14T01:18:30;24.95;;;13.32;;
17858;SDS011;35426;30.698;104.050;2023-06-14T01:21:03;24.88;;;14.68;;
17858;SDS011;35426;30.698;104.050;2023-06-14T01:23:40;31.80;;;16.48;;
17858;SDS011;35426;30.698;104.050;2023-06-14T01:26:13;25.08;;;15.68;;
17858;SDS011;35426;30.698;104.050;2023-06-14T01:28:47;29.65;;;14.82;;
17858;SDS011;35426;30.698;104.050;2023-06-14T01:31:23;32.83;;;17.35;;
17858;SDS011;35426;30.698;104.050;2023-06-14T01:34:03;30.15;;;17.70;;
17858;SDS011;35426;30.698;104.050;2023-06-14T01:36:36;35.90;;;19.38;;
17858;SDS011;35426;30.698;104.050;2023-06-14T01:39:16;33.58;;;19.55;;
17858;SDS011;35426;30.698;104.050;2023-06-14T01:41:51;37.70;;;19.87;;
17858;SDS011;35426;30.698;104.050;2023-06-14T01:44:28;34.20;;;18.40;;
17858;SDS011;35426;30.698;104.050;2023-06-14T01:47:03;46.40;;;21.17;;
17858;SDS011;35426;30.698;104.050;2023-06-14T01:49:38;34.93;;;20.27;;
17858;SDS011;35426;30.698;104.050;2023-06-14T01:52:14;33.57;;;18.97;;
17858;SDS011;35426;30.698;104.050;2023-06-14T01:54:50;35.27;;;20.13;;
17858;SDS011;35426;30.698;104.050;2023-06-14T01:57:24;31.97;;;18.73;;
17858;SDS011;35426;30.698;104.050;2023-06-14T02:00:01;36.20;;;20.20;;
17858;SDS011;35426;30.698;104.050;2023-06-14T02:02:39;34.63;;;18.63;;
17858;SDS011;35426;30.698;104.050;2023-06-14T02:05:12;36.70;;;18.93;;
17858;SDS011;35426;30.698;104.050;2023-06-14T02:07:50;39.23;;;20.27;;
17858;SDS011;35426;30.698;104.050;2023-06-14T02:10:26;39.40;;;20.57;;
17858;SDS011;35426;30.698;104.050;2023-06-14T02:13:03;32.93;;;20.07;;
17858;SDS011;35426;30.698;104.050;2023-06-14T02:15:37;34.60;;;19.83;;
17858;SDS011;35426;30.698;104.050;2023-06-14T02:18:13;36.00;;;20.87;;
17858;SDS011;35426;30.698;104.050;2023-06-14T02:20:47;36.53;;;21.20;;
17858;SDS011;35426;30.698;104.050;2023-06-14T02:23:20;39.23;;;20.07;;
17858;SDS011;35426;30.698;104.050;2023-06-14T02:26:01;34.77;;;20.17;;
17858;SDS011;35426;30.698;104.050;2023-06-14T02:28:36;33.43;;;18.87;;
17858;SDS011;35426;30.698;104.050;2023-06-14T02:31:11;30.67;;;17.90;;
17858;SDS011;35426;30.698;104.050;2023-06-14T02:33:49;39.13;;;19.90;;
17858;SDS011;35426;30.698;104.050;2023-06-14T02:36:24;34.30;;;18.77;;
17858;SDS011;35426;30.698;104.050;2023-06-14T02:39:00;32.03;;;18.17;;
17858;SDS011;35426;30.698;104.050;2023-06-14T02:41:36;43.07;;;21.53;;
17858;SDS011;35426;30.698;104.050;2023-06-14T02:44:10;42.53;;;19.93;;
17858;SDS011;35426;30.698;104.050;2023-06-14T02:46:47;34.67;;;19.70;;
17858;SDS011;35426;30.698;104.050;2023-06-14T02:49:20;31.47;;;18.37;;
17858;SDS011;35426;30.698;104.050;2023-06-14T02:51:55;40.23;;;21.03;;
17858;SDS011;35426;30.698;104.050;2023-06-14T02:54:29;38.20;;;21.10;;
17858;SDS011;35426;30.698;104.050;2023-06-14T02:57:06;35.37;;;19.90;;
17858;SDS011;35426;30.698;104.050;2023-06-14T02:59:41;37.97;;;21.80;;
17858;SDS011;35426;30.698;104.050;2023-06-14T03:02:16;49.87;;;22.53;;
17858;SDS011;35426;30.698;104.050;2023-06-14T03:04:50;38.93;;;20.13;;
17858;SDS011;35426;30.698;104.050;2023-06-14T03:07:25;39.27;;;21.63;;
17858;SDS011;35426;30.698;104.050;2023-06-14T03:09:59;41.50;;;25.30;;
17858;SDS011;35426;30.698;104.050;2023-06-14T03:12:35;50.37;;;26.67;;
17858;SDS011;35426;30.698;104.050;2023-06-14T03:15:11;41.23;;;24.70;;
17858;SDS011;35426;30.698;104.050;2023-06-14T03:17:49;42.77;;;22.83;;
17858;SDS011;35426;30.698;104.050;2023-06-14T03:20:22;33.80;;;19.25;;
17858;SDS011;35426;30.698;104.050;2023-06-14T03:23:02;42.17;;;24.42;;
17858;SDS011;35426;30.698;104.050;2023-06-14T03:25:35;34.88;;;22.25;;
17858;SDS011;35426;30.698;104.050;2023-06-14T03:28:14;42.78;;;23.40;;
17858;SDS011;35426;30.698;104.050;2023-06-14T03:30:48;42.78;;;21.95;;
17858;SDS011;35426;30.698;104.050;2023-06-14T03:33:22;34.78;;;21.80;;
17858;SDS011;35426;30.698;104.050;2023-06-14T03:35:56;39.78;;;22.23;;
17858;SDS011;35426;30.698;104.050;2023-06-14T03:38:29;43.45;;;26.92;;
17858;SDS011;35426;30.698;104.050;2023-06-14T03:41:04;48.67;;;26.90;;
17858;SDS011;35426;30.698;104.050;2023-06-14T03:43:40;49.53;;;27.60;;
17858;SDS011;35426;30.698;104.050;2023-06-14T03:46:13;46.17;;;26.73;;
17858;SDS011;35426;30.698;104.050;2023-06-14T03:48:47;41.63;;;25.92;;
17858;SDS011;35426;30.698;104.050;2023-06-14T03:51:22;47.78;;;26.27;;
17858;SDS011;35426;30.698;104.050;2023-06-14T03:53:57;49.45;;;27.17;;
17858;SDS011;35426;30.698;104.050;2023-06-14T03:56:35;46.45;;;26.17;;
17858;SDS011;35426;30.698;104.050;2023-06-14T03:59:12;49.15;;;25.83;;
17858;SDS011;35426;30.698;104.050;2023-06-14T04:01:48;48.75;;;29.98;;
17858;SDS011;35426;30.698;104.050;2023-06-14T04:04:23;48.65;;;26.85;;
17858;SDS011;35426;30.698;104.050;2023-06-14T04:06:59;48.47;;;27.20;;
17858;SDS011;35426;30.698;104.050;2023-06-14T04:09:33;50.20;;;27.85;;
17858;SDS011;35426;30.698;104.050;2023-06-14T04:12:08;38.17;;;23.30;;
17858;SDS011;35426;30.698;104.050;2023-06-14T04:14:46;40.53;;;24.80;;
17858;SDS011;35426;30.698;104.050;2023-06-14T04:17:20;41.55;;;23.15;;
17858;SDS011;35426;30.698;104.050;2023-06-14T04:19:56;36.63;;;22.83;;
17858;SDS011;35426;30.698;104.050;2023-06-14T04:22:30;45.25;;;27.80;;
17858;SDS011;35426;30.698;104.050;2023-06-14T04:25:05;46.13;;;28.05;;
17858;SDS011;35426;30.698;104.050;2023-06-14T04:27:42;50.90;;;24.80;;
17858;SDS011;35426;30.698;104.050;2023-06-14T04:30:20;49.58;;;27.83;;
17858;SDS011;35426;30.698;104.050;2023-06-14T04:32:58;56.92;;;28.83;;
17858;SDS011;35426;30.698;104.050;2023-06-14T04:35:35;46.75;;;27.80;;
17858;SDS011;35426;30.698;104.050;2023-06-14T04:38:10;54.00;;;29.48;;
17858;SDS011;35426;30.698;104.050;2023-06-14T04:40:45;46.50;;;27.23;;
17858;SDS011;35426;30.698;104.050;2023-06-14T04:43:24;47.53;;;26.05;;
17858;SDS011;35426;30.698;104.050;2023-06-14T04:46:03;44.72;;;25.17;;
17858;SDS011;35426;30.698;104.050;2023-06-14T04:48:40;49.75;;;28.00;;
17858;SDS011;35426;30.698;104.050;2023-06-14T04:51:16;47.13;;;28.20;;
17858;SDS011;35426;30.698;104.050;2023-06-14T04:53:51;56.90;;;30.38;;
17858;SDS011;35426;30.698;104.050;2023-06-14T04:56:27;51.35;;;29.95;;
17858;SDS011;35426;30.698;104.050;2023-06-14T04:59:01;50.47;;;31.27;;
17858;SDS011;35426;30.698;104.050;2023-06-14T05:01:38;54.72;;;30.48;;
17858;SDS011;35426;30.698;104.050;2023-06-14T05:04:17;49.45;;;30.30;;
17858;SDS011;35426;30.698;104.050;2023-06-14T05:06:52;47.95;;;29.63;;
17858;SDS011;35426;30.698;104.050;2023-06-14T05:09:26;51.80;;;27.92;;
17858;SDS011;35426;30.698;104.050;2023-06-14T05:12:00;42.65;;;26.02;;
17858;SDS011;35426;30.698;104.050;2023-06-14T05:14:33;49.40;;;29.00;;
17858;SDS011;35426;30.698;104.050;2023-06-14T05:17:09;48.20;;;30.85;;
17858;SDS011;35426;30.698;104.050;2023-06-14T05:19:46;44.20;;;28.02;;
17858;SDS011;35426;30.698;104.050;2023-06-14T05:22:19;45.70;;;30.00;;
17858;SDS011;35426;30.698;104.050;2023-06-14T05:24:58;47.28;;;30.70;;
17858;SDS011;35426;30.698;104.050;2023-06-14T05:27:34;51.47;;;29.83;;
17858;SDS011;35426;30.698;104.050;2023-06-14T05:30:08;54.25;;;32.05;;
17858;SDS011;35426;30.698;104.050;2023-06-14T05:32:45;48.80;;;28.77;;
17858;SDS011;35426;30.698;104.050;2023-06-14T05:35:22;42.63;;;27.77;;
17858;SDS011;35426;30.698;104.050;2023-06-14T05:37:56;50.33;;;30.52;;
17858;SDS011;35426;30.698;104.050;2023-06-14T05:40:30;55.42;;;32.60;;
17858;SDS011;35426;30.698;104.050;2023-06-14T05:43:05;47.22;;;29.27;;
17858;SDS011;35426;30.698;104.050;2023-06-14T05:45:39;41.58;;;26.00;;
17858;SDS011;35426;30.698;104.050;2023-06-14T05:48:15;42.50;;;26.08;;
17858;SDS011;35426;30.698;104.050;2023-06-14T05:50:48;45.78;;;26.23;;
17858;SDS011;35426;30.698;104.050;2023-06-14T05:53:23;47.08;;;27.52;;
17858;SDS011;35426;30.698;104.050;2023-06-14T05:55:58;48.55;;;29.25;;
17858;SDS011;35426;30.698;104.050;2023-06-14T05:58:34;50.85;;;27.30;;
17858;SDS011;35426;30.698;104.050;2023-06-14T06:01:10;47.97;;;27.23;;
17858;SDS011;35426;30.698;104.050;2023-06-14T06:03:46;42.90;;;25.00;;
17858;SDS011;35426;30.698;104.050;2023-06-14T06:06:22;47.08;;;26.52;;
17858;SDS011;35426;30.698;104.050;2023-06-14T06:08:56;48.85;;;28.42;;
17858;SDS011;35426;30.698;104.050;2023-06-14T06:11:30;57.13;;;27.83;;
17858;SDS011;35426;30.698;104.050;2023-06-14T06:14:19;51.85;;;28.83;;
17858;SDS011;35426;30.698;104.050;2023-06-14T06:16:51;51.88;;;29.95;;
17858;SDS011;35426;30.698;104.050;2023-06-14T06:19:28;50.70;;;29.42;;
17858;SDS011;35426;30.698;104.050;2023-06-14T06:22:02;49.95;;;29.45;;
17858;SDS011;35426;30.698;104.050;2023-06-14T06:24:42;50.53;;;30.52;;
17858;SDS011;35426;30.698;104.050;2023-06-14T06:27:15;49.78;;;28.00;;
17858;SDS011;35426;30.698;104.050;2023-06-14T06:29:49;51.05;;;28.77;;
17858;SDS011;35426;30.698;104.050;2023-06-14T06:32:23;63.15;;;29.75;;
17858;SDS011;35426;30.698;104.050;2023-06-14T06:34:58;52.33;;;28.80;;
17858;SDS011;35426;30.698;104.050;2023-06-14T06:37:34;45.85;;;27.85;;
17858;SDS011;35426;30.698;104.050;2023-06-14T06:40:09;47.90;;;25.98;;
17858;SDS011;35426;30.698;104.050;2023-06-14T06:42:43;44.30;;;25.58;;
17858;SDS011;35426;30.698;104.050;2023-06-14T06:45:18;47.88;;;26.58;;
17858;SDS011;35426;30.698;104.050;2023-06-14T06:47:52;47.78;;;26.42;;
17858;SDS011;35426;30.698;104.050;2023-06-14T06:50:27;41.90;;;24.88;;
17858;SDS011;35426;30.698;104.050;2023-06-14T06:53:02;45.13;;;26.33;;
17858;SDS011;35426;30.698;104.050;2023-06-14T06:55:36;50.55;;;27.48;;
17858;SDS011;35426;30.698;104.050;2023-06-14T06:58:16;41.38;;;23.85;;
17858;SDS011;35426;30.698;104.050;2023-06-14T07:00:51;42.60;;;24.88;;
17858;SDS011;35426;30.698;104.050;2023-06-14T07:03:25;36.97;;;21.42;;
17858;SDS011;35426;30.698;104.050;2023-06-14T07:06:03;38.10;;;22.17;;
17858;SDS011;35426;30.698;104.050;2023-06-14T07:08:37;36.17;;;20.30;;
17858;SDS011;35426;30.698;104.050;2023-06-14T07:11:10;32.15;;;18.60;;
17858;SDS011;35426;30.698;104.050;2023-06-14T07:13:43;40.35;;;18.17;;
17858;SDS011;35426;30.698;104.050;2023-06-14T07:16:18;35.92;;;18.73;;
17858;SDS011;35426;30.698;104.050;2023-06-14T07:18:53;34.97;;;17.95;;
17858;SDS011;35426;30.698;104.050;2023-06-14T07:21:28;25.20;;;15.88;;
17858;SDS011;35426;30.698;104.050;2023-06-14T07:24:03;31.02;;;17.92;;
17858;SDS011;35426;30.698;104.050;2023-06-14T07:26:38;29.65;;;16.00;;
17858;SDS011;35426;30.698;104.050;2023-06-14T07:29:13;25.52;;;14.95;;
17858;SDS011;35426;30.698;104.050;2023-06-14T07:31:47;25.92;;;15.00;;
17858;SDS011;35426;30.698;104.050;2023-06-14T07:34:22;27.02;;;15.18;;
17858;SDS011;35426;30.698;104.050;2023-06-14T07:36:58;29.40;;;16.27;;
17858;SDS011;35426;30.698;104.050;2023-06-14T07:39:31;26.95;;;14.82;;
17858;SDS011;35426;30.698;104.050;2023-06-14T07:42:06;29.73;;;14.23;;
17858;SDS011;35426;30.698;104.050;2023-06-14T07:44:39;34.03;;;14.57;;
17858;SDS011;35426;30.698;104.050;2023-06-14T07:47:13;30.42;;;14.43;;
17858;SDS011;35426;30.698;104.050;2023-06-14T07:49:51;25.02;;;12.68;;
17858;SDS011;35426;30.698;104.050;2023-06-14T07:52:28;27.35;;;14.18;;
17858;SDS011;35426;30.698;104.050;2023-06-14T07:55:01;25.50;;;13.25;;
17858;SDS011;35426;30.698;104.050;2023-06-14T07:57:37;23.08;;;11.80;;
17858;SDS011;35426;30.698;104.050;2023-06-14T08:00:12;29.02;;;12.02;;
17858;SDS011;35426;30.698;104.050;2023-06-14T08:02:47;20.85;;;10.38;;
17858;SDS011;35426;30.698;104.050;2023-06-14T08:05:26;21.88;;;11.20;;
17858;SDS011;35426;30.698;104.050;2023-06-14T08:08:05;17.30;;;10.07;;
17858;SDS011;35426;30.698;104.050;2023-06-14T08:10:39;22.03;;;10.43;;
17858;SDS011;35426;30.698;104.050;2023-06-14T08:13:13;18.47;;;10.20;;
17858;SDS011;35426;30.698;104.050;2023-06-14T08:15:48;18.85;;;11.00;;
17858;SDS011;35426;30.698;104.050;2023-06-14T08:18:22;18.23;;;10.30;;
17858;SDS011;35426;30.698;104.050;2023-06-14T08:21:01;20.10;;;11.13;;
17858;SDS011;35426;30.698;104.050;2023-06-14T08:23:36;22.07;;;12.00;;
17858;SDS011;35426;30.698;104.050;2023-06-14T08:26:10;25.23;;;14.13;;
17858;SDS011;35426;30.698;104.050;2023-06-14T08:28:44;24.33;;;13.93;;
17858;SDS011;35426;30.698;104.050;2023-06-14T08:31:17;22.77;;;14.87;;
17858;SDS011;35426;30.698;104.050;2023-06-14T08:33:51;24.47;;;14.30;;
17858;SDS011;35426;30.698;104.050;2023-06-14T08:36:27;25.43;;;15.10;;
17858;SDS011;35426;30.698;104.050;2023-06-14T08:39:04;21.80;;;14.27;;
17858;SDS011;35426;30.698;104.050;2023-06-14T08:41:38;24.30;;;14.37;;
17858;SDS011;35426;30.698;104.050;2023-06-14T08:44:11;24.50;;;15.07;;
17858;SDS011;35426;30.698;104.050;2023-06-14T08:46:45;25.97;;;15.20;;
17858;SDS011;35426;30.698;104.050;2023-06-14T08:49:21;26.00;;;15.60;;
17858;SDS011;35426;30.698;104.050;2023-06-14T08:51:57;29.00;;;14.70;;
17858;SDS011;35426;30.698;104.050;2023-06-14T08:54:33;27.20;;;14.77;;
17858;SDS011;35426;30.698;104.050;2023-06-14T08:57:13;23.80;;;14.10;;
17858;SDS011;35426;30.698;104.050;2023-06-14T08:59:47;25.43;;;13.97;;
17858;SDS011;35426;30.698;104.050;2023-06-14T09:02:22;23.13;;;13.10;;
17858;SDS011;35426;30.698;104.050;2023-06-14T09:04:57;23.00;;;12.90;;
17858;SDS011;35426;30.698;104.050;2023-06-14T09:07:31;24.00;;;14.83;;
17858;SDS011;35426;30.698;104.050;2023-06-14T09:10:09;31.57;;;16.00;;
17858;SDS011;35426;30.698;104.050;2023-06-14T09:12:43;24.43;;;16.73;;
17858;SDS011;35426;30.698;104.050;2023-06-14T09:15:17;30.43;;;16.77;;
17858;SDS011;35426;30.698;104.050;2023-06-14T09:17:50;25.60;;;16.80;;
17858;SDS011;35426;30.698;104.050;2023-06-14T09:20:25;26.57;;;16.40;;
17858;SDS011;35426;30.698;104.050;2023-06-14T09:23:00;29.43;;;15.80;;
17858;SDS011;35426;30.698;104.050;2023-06-14T09:25:45;26.40;;;15.77;;
17858;SDS011;35426;30.698;104.050;2023-06-14T09:28:18;25.27;;;15.13;;
17858;SDS011;35426;30.698;104.050;2023-06-14T09:30:52;36.20;;;14.27;;
17858;SDS011;35426;30.698;104.050;2023-06-14T09:33:26;24.33;;;15.90;;
17858;SDS011;35426;30.698;104.050;2023-06-14T09:35:59;28.07;;;16.13;;
17858;SDS011;35426;30.698;104.050;2023-06-14T09:38:34;28.60;;;15.73;;
17858;SDS011;35426;30.698;104.050;2023-06-14T09:41:10;22.63;;;14.57;;
17858;SDS011;35426;30.698;104.050;2023-06-14T09:43:43;20.73;;;14.73;;
17858;SDS011;35426;30.698;104.050;2023-06-14T09:46:19;25.30;;;14.90;;
17858;SDS011;35426;30.698;104.050;2023-06-14T09:48:53;24.10;;;16.00;;
17858;SDS011;35426;30.698;104.050;2023-06-14T09:51:27;25.43;;;15.73;;
17858;SDS011;35426;30.698;104.050;2023-06-14T09:54:01;25.47;;;16.57;;
17858;SDS011;35426;30.698;104.050;2023-06-14T09:56:40;25.80;;;16.40;;
17858;SDS011;35426;30.698;104.050;2023-06-14T09:59:16;30.60;;;16.90;;
17858;SDS011;35426;30.698;104.050;2023-06-14T10:02:00;29.67;;;16.50;;
17858;SDS011;35426;30.698;104.050;2023-06-14T10:04:43;27.30;;;17.43;;
17858;SDS011;35426;30.698;104.050;2023-06-14T10:07:20;32.53;;;18.80;;
17858;SDS011;35426;30.698;104.050;2023-06-14T10:09:53;40.67;;;19.97;;
17858;SDS011;35426;30.698;104.050;2023-06-14T10:12:30;32.40;;;20.30;;
17858;SDS011;35426;30.698;104.050;2023-06-14T10:15:05;35.93;;;21.70;;
17858;SDS011;35426;30.698;104.050;2023-06-14T10:17:41;36.77;;;22.50;;
17858;SDS011;35426;30.698;104.050;2023-06-14T10:20:24;32.43;;;20.73;;
17858;SDS011;35426;30.698;104.050;2023-06-14T10:23:03;31.90;;;19.47;;
17858;SDS011;35426;30.698;104.050;2023-06-14T10:25:42;32.77;;;19.77;;
17858;SDS011;35426;30.698;104.050;2023-06-14T10:28:20;31.73;;;20.23;;
17858;SDS011;35426;30.698;104.050;2023-06-14T10:31:07;33.83;;;20.73;;
17858;SDS011;35426;30.698;104.050;2023-06-14T10:33:48;38.27;;;20.10;;
17858;SDS011;35426;30.698;104.050;2023-06-14T10:36:29;33.30;;;19.77;;
17858;SDS011;35426;30.698;104.050;2023-06-14T10:39:05;36.60;;;20.87;;
17858;SDS011;35426;30.698;104.050;2023-06-14T10:41:39;35.30;;;20.77;;
17858;SDS011;35426;30.698;104.050;2023-06-14T10:47:13;33.97;;;20.20;;
17858;SDS011;35426;30.698;104.050;2023-06-14T10:49:56;36.43;;;21.53;;
17858;SDS011;35426;30.698;104.050;2023-06-14T10:52:38;32.87;;;21.50;;
17858;SDS011;35426;30.698;104.050;2023-06-14T10:55:14;34.33;;;21.00;;
17858;SDS011;35426;30.698;104.050;2023-06-14T10:57:52;39.07;;;20.77;;
17858;SDS011;35426;30.698;104.050;2023-06-14T11:00:29;37.33;;;22.40;;
17858;SDS011;35426;30.698;104.050;2023-06-14T11:06:14;44.00;;;22.27;;
17858;SDS011;35426;30.698;104.050;2023-06-14T11:09:02;42.00;;;23.87;;
17858;SDS011;35426;30.698;104.050;2023-06-14T11:11:51;35.17;;;22.00;;
17858;SDS011;35426;30.698;104.050;2023-06-14T11:14:30;44.73;;;24.97;;
17858;SDS011;35426;30.698;104.050;2023-06-14T11:17:06;43.33;;;26.03;;
17858;SDS011;35426;30.698;104.050;2023-06-14T11:19:41;45.77;;;24.00;;
17858;SDS011;35426;30.698;104.050;2023-06-14T11:22:16;45.20;;;21.60;;
17858;SDS011;35426;30.698;104.050;2023-06-14T11:24:50;34.40;;;19.80;;
17858;SDS011;35426;30.698;104.050;2023-06-14T11:27:27;31.83;;;19.70;;
17858;SDS011;35426;30.698;104.050;2023-06-14T11:30:02;30.97;;;18.13;;
17858;SDS011;35426;30.698;104.050;2023-06-14T11:32:45;29.67;;;18.20;;
17858;SDS011;35426;30.698;104.050;2023-06-14T11:35:24;26.40;;;17.40;;
17858;SDS011;35426;30.698;104.050;2023-06-14T11:37:58;29.40;;;18.07;;
17858;SDS011;35426;30.698;104.050;2023-06-14T11:40:33;29.70;;;17.80;;
17858;SDS011;35426;30.698;104.050;2023-06-14T11:43:11;30.77;;;17.33;;
17858;SDS011;35426;30.698;104.050;2023-06-14T11:45:45;32.40;;;16.43;;
17858;SDS011;35426;30.698;104.050;2023-06-14T11:48:40;25.93;;;15.90;;
17858;SDS011;35426;30.698;104.050;2023-06-14T11:51:14;28.17;;;16.87;;
17858;SDS011;35426;30.698;104.050;2023-06-14T11:53:48;27.17;;;16.20;;
17858;SDS011;35426;30.698;104.050;2023-06-14T11:56:22;26.97;;;15.73;;
17858;SDS011;35426;30.698;104.050;2023-06-14T11:58:56;28.30;;;16.13;;
17858;SDS011;35426;30.698;104.050;2023-06-14T12:01:31;28.37;;;16.93;;
17858;SDS011;35426;30.698;104.050;2023-06-14T12:04:10;31.00;;;17.10;;
17858;SDS011;35426;30.698;104.050;2023-06-14T12:06:43;33.23;;;16.57;;
17858;SDS011;35426;30.698;104.050;2023-06-14T12:09:18;28.83;;;17.53;;
17858;SDS011;35426;30.698;104.050;2023-06-14T12:11:59;30.33;;;17.37;;
17858;SDS011;35426;30.698;104.050;2023-06-14T12:14:32;27.73;;;16.73;;
17858;SDS011;35426;30.698;104.050;2023-06-14T12:17:06;26.77;;;16.87;;
17858;SDS011;35426;30.698;104.050;2023-06-14T12:19:44;26.40;;;16.50;;
17858;SDS011;35426;30.698;104.050;2023-06-14T12:22:20;26.63;;;16.77;;
17858;SDS011;35426;30.698;104.050;2023-06-14T12:24:55;23.17;;;16.23;;
17858;SDS011;35426;30.698;104.050;2023-06-14T12:27:28;23.20;;;15.13;;
17858;SDS011;35426;30.698;104.050;2023-06-14T12:30:02;23.37;;;13.80;;
17858;SDS011;35426;30.698;104.050;2023-06-14T12:32:37;23.77;;;14.80;;
17858;SDS011;35426;30.698;104.050;2023-06-14T12:35:12;26.20;;;14.20;;
17858;SDS011;35426;30.698;104.050;2023-06-14T12:37:48;21.07;;;14.23;;
17858;SDS011;35426;30.698;104.050;2023-06-14T12:40:22;22.50;;;14.63;;
17858;SDS011;35426;30.698;104.050;2023-06-14T12:42:56;23.40;;;14.77;;
17858;SDS011;35426;30.698;104.050;2023-06-14T12:45:35;21.97;;;14.90;;
17858;SDS011;35426;30.698;104.050;2023-06-14T12:48:08;25.13;;;15.33;;
17858;SDS011;35426;30.698;104.050;2023-06-14T12:50:43;21.83;;;14.57;;
17858;SDS011;35426;30.698;104.050;2023-06-14T12:53:16;27.17;;;15.30;;
17858;SDS011;35426;30.698;104.050;2023-06-14T12:55:53;20.60;;;14.30;;
17858;SDS011;35426;30.698;104.050;2023-06-14T12:58:28;20.70;;;13.77;;
17858;SDS011;35426;30.698;104.050;2023-06-14T13:01:02;23.33;;;14.57;;
17858;SDS011;35426;30.698;104.050;2023-06-14T13:03:36;24.10;;;14.53;;
17858;SDS011;35426;30.698;104.050;2023-06-14T13:06:11;23.73;;;14.70;;
17858;SDS011;35426;30.698;104.050;2023-06-14T13:08:45;21.73;;;14.53;;
17858;SDS011;35426;30.698;104.050;2023-06-14T13:11:24;28.33;;;15.60;;
17858;SDS011;35426;30.698;104.050;2023-06-14T13:13:58;27.67;;;15.13;;
17858;SDS011;35426;30.698;104.050;2023-06-14T13:16:51;29.10;;;15.47;;
17858;SDS011;35426;30.698;104.050;2023-06-14T13:19:25;27.27;;;15.47;;
17858;SDS011;35426;30.698;104.050;2023-06-14T13:22:02;26.80;;;15.17;;
17858;SDS011;35426;30.698;104.050;2023-06-14T13:24:37;30.07;;;15.33;;
17858;SDS011;35426;30.698;104.050;2023-06-14T13:27:10;24.67;;;15.23;;
17858;SDS011;35426;30.698;104.050;2023-06-14T13:29:44;24.10;;;15.00;;
17858;SDS011;35426;30.698;104.050;2023-06-14T13:32:18;24.63;;;16.10;;
17858;SDS011;35426;30.698;104.050;2023-06-14T13:34:52;25.63;;;16.13;;
17858;SDS011;35426;30.698;104.050;2023-06-14T13:37:28;25.17;;;15.67;;
17858;SDS011;35426;30.698;104.050;2023-06-14T13:40:01;26.10;;;16.63;;
17858;SDS011;35426;30.698;104.050;2023-06-14T13:42:36;26.27;;;15.80;;
17858;SDS011;35426;30.698;104.050;2023-06-14T13:45:09;25.97;;;16.43;;
17858;SDS011;35426;30.698;104.050;2023-06-14T13:47:44;26.83;;;16.53;;
17858;SDS011;35426;30.698;104.050;2023-06-14T13:50:18;30.13;;;16.53;;
17858;SDS011;35426;30.698;104.050;2023-06-14T13:52:53;25.67;;;16.10;;
17858;SDS011;35426;30.698;104.050;2023-06-14T13:55:26;31.40;;;16.50;;
17858;SDS011;35426;30.698;104.050;2023-06-14T13:58:00;30.17;;;17.40;;
17858;SDS011;35426;30.698;104.050;2023-06-14T14:00:34;29.43;;;17.00;;
17858;SDS011;35426;30.698;104.050;2023-06-14T14:03:09;28.07;;;17.70;;
17858;SDS011;35426;30.698;104.050;2023-06-14T14:05:46;32.90;;;17.23;;
17858;SDS011;35426;30.698;104.050;2023-06-14T14:08:22;29.93;;;17.63;;
17858;SDS011;35426;30.698;104.050;2023-06-14T14:11:04;30.00;;;17.57;;
17858;SDS011;35426;30.698;104.050;2023-06-14T14:13:39;34.37;;;19.20;;
17858;SDS011;35426;30.698;104.050;2023-06-14T14:16:14;29.23;;;18.80;;
17858;SDS011;35426;30.698;104.050;2023-06-14T14:18:48;31.40;;;20.33;;
17858;SDS011;35426;30.698;104.050;2023-06-14T14:21:26;35.30;;;20.83;;
17858;SDS011;35426;30.698;104.050;2023-06-14T14:24:01;33.40;;;21.00;;
17858;SDS011;35426;30.698;104.050;2023-06-14T14:26:36;31.50;;;20.77;;
17858;SDS011;35426;30.698;104.050;2023-06-14T14:29:11;33.13;;;21.93;;
17858;SDS011;35426;30.698;104.050;2023-06-14T14:31:45;32.10;;;21.00;;
17858;SDS011;35426;30.698;104.050;2023-06-14T14:34:19;31.07;;;21.40;;
17858;SDS011;35426;30.698;104.050;2023-06-14T14:36:54;32.93;;;21.13;;
17858;SDS011;35426;30.698;104.050;2023-06-14T14:39:31;35.40;;;22.53;;
17858;SDS011;35426;30.698;104.050;2023-06-14T14:42:04;35.60;;;22.97;;
17858;SDS011;35426;30.698;104.050;2023-06-14T14:44:40;37.40;;;22.50;;
17858;SDS011;35426;30.698;104.050;2023-06-14T14:47:13;41.50;;;23.83;;
17858;SDS011;35426;30.698;104.050;2023-06-14T14:49:48;40.70;;;22.93;;